sensor_id;sensor_type;location;lat;lon;timestamp;temperature;humidity
46732;DHT22;32477;51.474;5.696;2022-12-07T00:02:05;4.20;99.90
46732;DHT22;32477;51.474;5.696;2022-12-07T00:04:31;4.10;99.90
46732;DHT22;32477;51.474;5.696;2022-12-07T00:06:56;4.10;99.90
46732;DHT22;32477;51.474;5.696;2022-12-07T00:09:22;4.00;99.90
46732;DHT22;32477;51.474;5.696;2022-12-07T00:11:49;4.00;99.90
46732;DHT22;32477;51.474;5.696;2022-12-07T00:14:16;4.00;99.90
46732;DHT22;32477;51.474;5.696;2022-12-07T00:16:43;3.90;99.90
46732;DHT22;32477;51.474;5.696;2022-12-07T00:19:10;3.80;99.90
46732;DHT22;32477;51.474;5.696;2022-12-07T00:21:36;3.70;99.90
46732;DHT22;32477;51.474;5.696;2022-12-07T00:24:04;3.60;99.90
46732;DHT22;32477;51.474;5.696;2022-12-07T00:26:35;3.70;99.90
46732;DHT22;32477;51.474;5.696;2022-12-07T00:29:16;3.60;99.90
46732;DHT22;32477;51.474;5.696;2022-12-07T00:31:42;3.40;99.90
46732;DHT22;32477;51.474;5.696;2022-12-07T00:34:12;3.40;99.90
46732;DHT22;32477;51.474;5.696;2022-12-07T00:36:38;3.40;99.90
46732;DHT22;32477;51.474;5.696;2022-12-07T00:39:04;3.50;99.90
46732;DHT22;32477;51.474;5.696;2022-12-07T00:41:29;3.40;99.90
46732;DHT22;32477;51.474;5.696;2022-12-07T00:43:56;3.30;99.90
46732;DHT22;32477;51.474;5.696;2022-12-07T00:46:22;3.30;99.90
46732;DHT22;32477;51.474;5.696;2022-12-07T00:48:48;3.20;99.90
46732;DHT22;32477;51.474;5.696;2022-12-07T00:51:16;3.20;99.90
46732;DHT22;32477;51.474;5.696;2022-12-07T00:53:42;3.10;99.90
46732;DHT22;32477;51.474;5.696;2022-12-07T00:56:09;3.10;99.90
46732;DHT22;32477;51.474;5.696;2022-12-07T00:58:35;3.00;99.90
46732;DHT22;32477;51.474;5.696;2022-12-07T01:01:02;2.90;99.90
46732;DHT22;32477;51.474;5.696;2022-12-07T01:03:28;2.80;99.90
46732;DHT22;32477;51.474;5.696;2022-12-07T01:05:57;2.80;99.90
46732;DHT22;32477;51.474;5.696;2022-12-07T01:08:24;2.80;99.90
46732;DHT22;32477;51.474;5.696;2022-12-07T01:11:02;2.90;99.90
46732;DHT22;32477;51.474;5.696;2022-12-07T01:13:28;2.90;99.90
46732;DHT22;32477;51.474;5.696;2022-12-07T01:15:57;3.00;99.90
46732;DHT22;32477;51.474;5.696;2022-12-07T01:18:23;3.10;99.90
46732;DHT22;32477;51.474;5.696;2022-12-07T01:21:12;3.20;99.90
46732;DHT22;32477;51.474;5.696;2022-12-07T01:23:38;3.30;99.90
46732;DHT22;32477;51.474;5.696;2022-12-07T01:26:09;3.40;99.90
46732;DHT22;32477;51.474;5.696;2022-12-07T01:28:35;3.40;99.90
46732;DHT22;32477;51.474;5.696;2022-12-07T01:31:09;3.50;99.90
46732;DHT22;32477;51.474;5.696;2022-12-07T01:33:37;3.50;99.90
46732;DHT22;32477;51.474;5.696;2022-12-07T01:36:23;3.50;99.90
46732;DHT22;32477;51.474;5.696;2022-12-07T01:38:51;3.60;99.90
46732;DHT22;32477;51.474;5.696;2022-12-07T01:41:18;3.70;99.90
46732;DHT22;32477;51.474;5.696;2022-12-07T01:44:08;3.70;99.90
46732;DHT22;32477;51.474;5.696;2022-12-07T01:46:34;3.70;99.90
46732;DHT22;32477;51.474;5.696;2022-12-07T01:49:00;3.70;99.90
46732;DHT22;32477;51.474;5.696;2022-12-07T01:51:26;3.60;99.90
46732;DHT22;32477;51.474;5.696;2022-12-07T01:53:52;3.60;99.90
46732;DHT22;32477;51.474;5.696;2022-12-07T01:56:22;3.60;99.90
46732;DHT22;32477;51.474;5.696;2022-12-07T01:58:49;3.60;99.90
46732;DHT22;32477;51.474;5.696;2022-12-07T02:01:16;3.50;99.90
46732;DHT22;32477;51.474;5.696;2022-12-07T02:03:43;3.50;99.90
46732;DHT22;32477;51.474;5.696;2022-12-07T02:06:13;3.40;99.90
46732;DHT22;32477;51.474;5.696;2022-12-07T02:08:42;3.30;99.90
46732;DHT22;32477;51.474;5.696;2022-12-07T02:11:08;3.30;99.90
46732;DHT22;32477;51.474;5.696;2022-12-07T02:13:36;3.20;99.90
46732;DHT22;32477;51.474;5.696;2022-12-07T02:18:44;3.30;99.90
46732;DHT22;32477;51.474;5.696;2022-12-07T02:24:15;3.50;99.90
46732;DHT22;32477;51.474;5.696;2022-12-07T02:29:28;3.70;99.90
46732;DHT22;32477;51.474;5.696;2022-12-07T02:34:49;3.70;99.90
46732;DHT22;32477;51.474;5.696;2022-12-07T02:40:22;3.70;99.90
46732;DHT22;32477;51.474;5.696;2022-12-07T02:43:25;3.60;99.90
46732;DHT22;32477;51.474;5.696;2022-12-07T02:45:44;3.50;99.90
46732;DHT22;32477;51.474;5.696;2022-12-07T02:48:13;3.40;99.90
46732;DHT22;32477;51.474;5.696;2022-12-07T02:50:54;3.30;99.90
46732;DHT22;32477;51.474;5.696;2022-12-07T02:53:34;3.20;99.90
46732;DHT22;32477;51.474;5.696;2022-12-07T02:56:39;3.20;99.90
46732;DHT22;32477;51.474;5.696;2022-12-07T02:59:25;3.10;99.90
46732;DHT22;32477;51.474;5.696;2022-12-07T03:05:43;3.00;99.90
46732;DHT22;32477;51.474;5.696;2022-12-07T03:08:21;2.90;99.90
46732;DHT22;32477;51.474;5.696;2022-12-07T03:11:02;2.90;99.90
46732;DHT22;32477;51.474;5.696;2022-12-07T03:13:37;2.90;99.90
46732;DHT22;32477;51.474;5.696;2022-12-07T03:16:14;2.80;99.90
46732;DHT22;32477;51.474;5.696;2022-12-07T03:18:48;2.70;99.90
46732;DHT22;32477;51.474;5.696;2022-12-07T03:21:17;2.60;99.90
46732;DHT22;32477;51.474;5.696;2022-12-07T03:23:48;2.60;99.90
46732;DHT22;32477;51.474;5.696;2022-12-07T03:26:17;2.70;99.90
46732;DHT22;32477;51.474;5.696;2022-12-07T03:28:49;2.80;99.90
46732;DHT22;32477;51.474;5.696;2022-12-07T03:31:33;2.90;99.90
46732;DHT22;32477;51.474;5.696;2022-12-07T03:39:28;3.30;99.90
46732;DHT22;32477;51.474;5.696;2022-12-07T03:41:58;3.40;99.90
46732;DHT22;32477;51.474;5.696;2022-12-07T03:44:25;3.40;99.90
46732;DHT22;32477;51.474;5.696;2022-12-07T03:49:25;3.50;99.90
46732;DHT22;32477;51.474;5.696;2022-12-07T03:52:15;3.60;99.90
46732;DHT22;32477;51.474;5.696;2022-12-07T03:55:00;3.60;99.90
46732;DHT22;32477;51.474;5.696;2022-12-07T03:57:28;3.60;99.90
46732;DHT22;32477;51.474;5.696;2022-12-07T03:59:56;3.50;99.90
46732;DHT22;32477;51.474;5.696;2022-12-07T04:02:24;3.50;99.90
46732;DHT22;32477;51.474;5.696;2022-12-07T04:04:50;3.50;99.90
46732;DHT22;32477;51.474;5.696;2022-12-07T04:07:16;3.60;99.90
46732;DHT22;32477;51.474;5.696;2022-12-07T04:09:42;3.60;99.90
46732;DHT22;32477;51.474;5.696;2022-12-07T04:12:07;3.60;99.90
46732;DHT22;32477;51.474;5.696;2022-12-07T04:14:33;3.60;99.90
46732;DHT22;32477;51.474;5.696;2022-12-07T04:16:59;3.70;99.90
46732;DHT22;32477;51.474;5.696;2022-12-07T04:19:31;3.80;99.90
46732;DHT22;32477;51.474;5.696;2022-12-07T04:21:58;3.80;99.90
46732;DHT22;32477;51.474;5.696;2022-12-07T04:24:24;3.80;99.90
46732;DHT22;32477;51.474;5.696;2022-12-07T04:26:51;3.80;99.90
46732;DHT22;32477;51.474;5.696;2022-12-07T04:29:18;3.90;99.90
46732;DHT22;32477;51.474;5.696;2022-12-07T04:31:44;3.80;99.90
46732;DHT22;32477;51.474;5.696;2022-12-07T04:34:11;3.80;99.90
46732;DHT22;32477;51.474;5.696;2022-12-07T04:36:37;3.90;99.90
46732;DHT22;32477;51.474;5.696;2022-12-07T04:39:04;3.90;99.90
46732;DHT22;32477;51.474;5.696;2022-12-07T04:41:30;3.90;99.90
46732;DHT22;32477;51.474;5.696;2022-12-07T04:43:57;3.90;99.90
46732;DHT22;32477;51.474;5.696;2022-12-07T04:46:24;3.80;99.90
46732;DHT22;32477;51.474;5.696;2022-12-07T04:48:51;3.80;99.90
46732;DHT22;32477;51.474;5.696;2022-12-07T04:51:20;3.80;99.90
46732;DHT22;32477;51.474;5.696;2022-12-07T04:53:46;3.70;99.90
46732;DHT22;32477;51.474;5.696;2022-12-07T04:56:13;3.70;99.90
46732;DHT22;32477;51.474;5.696;2022-12-07T04:58:38;3.70;99.90
46732;DHT22;32477;51.474;5.696;2022-12-07T05:01:04;3.70;99.90
46732;DHT22;32477;51.474;5.696;2022-12-07T05:03:30;3.70;99.90
46732;DHT22;32477;51.474;5.696;2022-12-07T05:05:55;3.70;99.90
46732;DHT22;32477;51.474;5.696;2022-12-07T05:08:21;3.70;99.90
46732;DHT22;32477;51.474;5.696;2022-12-07T05:10:48;3.70;99.90
46732;DHT22;32477;51.474;5.696;2022-12-07T05:13:14;3.80;99.90
46732;DHT22;32477;51.474;5.696;2022-12-07T05:15:40;3.70;99.90
46732;DHT22;32477;51.474;5.696;2022-12-07T05:18:09;3.70;99.90
46732;DHT22;32477;51.474;5.696;2022-12-07T05:20:34;3.60;99.90
46732;DHT22;32477;51.474;5.696;2022-12-07T05:23:00;3.60;99.90
46732;DHT22;32477;51.474;5.696;2022-12-07T05:25:26;3.50;99.90
46732;DHT22;32477;51.474;5.696;2022-12-07T05:27:51;3.50;99.90
46732;DHT22;32477;51.474;5.696;2022-12-07T05:30:17;3.50;99.90
46732;DHT22;32477;51.474;5.696;2022-12-07T05:32:43;3.40;99.90
46732;DHT22;32477;51.474;5.696;2022-12-07T05:35:09;3.40;99.90
46732;DHT22;32477;51.474;5.696;2022-12-07T05:37:35;3.30;99.90
46732;DHT22;32477;51.474;5.696;2022-12-07T05:40:00;3.20;99.90
46732;DHT22;32477;51.474;5.696;2022-12-07T05:42:26;3.10;99.90
46732;DHT22;32477;51.474;5.696;2022-12-07T05:44:51;3.00;99.90
46732;DHT22;32477;51.474;5.696;2022-12-07T05:47:17;3.00;99.90
46732;DHT22;32477;51.474;5.696;2022-12-07T05:49:43;2.90;99.90
46732;DHT22;32477;51.474;5.696;2022-12-07T05:52:08;2.90;99.90
46732;DHT22;32477;51.474;5.696;2022-12-07T05:54:34;2.80;99.90
46732;DHT22;32477;51.474;5.696;2022-12-07T05:57:00;2.80;99.90
46732;DHT22;32477;51.474;5.696;2022-12-07T05:59:25;2.70;99.90
46732;DHT22;32477;51.474;5.696;2022-12-07T06:01:55;2.60;99.90
46732;DHT22;32477;51.474;5.696;2022-12-07T06:04:22;2.60;99.90
46732;DHT22;32477;51.474;5.696;2022-12-07T06:06:49;2.50;99.90
46732;DHT22;32477;51.474;5.696;2022-12-07T06:09:15;2.50;99.90
46732;DHT22;32477;51.474;5.696;2022-12-07T06:11:41;2.40;99.90
46732;DHT22;32477;51.474;5.696;2022-12-07T06:14:25;2.40;99.90
46732;DHT22;32477;51.474;5.696;2022-12-07T06:16:51;2.50;99.90
46732;DHT22;32477;51.474;5.696;2022-12-07T06:19:17;2.60;99.90
46732;DHT22;32477;51.474;5.696;2022-12-07T06:21:42;2.60;99.90
46732;DHT22;32477;51.474;5.696;2022-12-07T06:24:13;2.70;99.90
46732;DHT22;32477;51.474;5.696;2022-12-07T06:26:39;2.60;99.90
46732;DHT22;32477;51.474;5.696;2022-12-07T06:29:05;2.60;99.90
46732;DHT22;32477;51.474;5.696;2022-12-07T06:31:30;2.50;99.90
46732;DHT22;32477;51.474;5.696;2022-12-07T06:34:01;2.40;99.90
46732;DHT22;32477;51.474;5.696;2022-12-07T06:36:28;2.40;99.90
46732;DHT22;32477;51.474;5.696;2022-12-07T06:38:54;2.40;99.90
46732;DHT22;32477;51.474;5.696;2022-12-07T06:41:20;2.30;99.90
46732;DHT22;32477;51.474;5.696;2022-12-07T06:43:46;2.30;99.90
46732;DHT22;32477;51.474;5.696;2022-12-07T06:46:13;2.30;99.90
46732;DHT22;32477;51.474;5.696;2022-12-07T06:48:39;2.20;99.90
46732;DHT22;32477;51.474;5.696;2022-12-07T06:51:05;2.10;99.90
46732;DHT22;32477;51.474;5.696;2022-12-07T06:53:30;2.10;99.90
46732;DHT22;32477;51.474;5.696;2022-12-07T06:55:56;2.00;99.90
46732;DHT22;32477;51.474;5.696;2022-12-07T06:58:22;2.00;99.90
46732;DHT22;32477;51.474;5.696;2022-12-07T07:00:48;2.00;99.90
46732;DHT22;32477;51.474;5.696;2022-12-07T07:03:15;2.00;99.90
46732;DHT22;32477;51.474;5.696;2022-12-07T07:05:41;2.10;99.90
46732;DHT22;32477;51.474;5.696;2022-12-07T07:08:07;2.10;99.90
46732;DHT22;32477;51.474;5.696;2022-12-07T07:10:32;2.20;99.90
46732;DHT22;32477;51.474;5.696;2022-12-07T07:12:58;2.30;99.90
46732;DHT22;32477;51.474;5.696;2022-12-07T07:15:24;2.30;99.90
46732;DHT22;32477;51.474;5.696;2022-12-07T07:17:50;2.30;99.90
46732;DHT22;32477;51.474;5.696;2022-12-07T07:20:15;2.20;99.90
46732;DHT22;32477;51.474;5.696;2022-12-07T07:22:41;2.20;99.90
46732;DHT22;32477;51.474;5.696;2022-12-07T07:25:07;2.30;99.90
46732;DHT22;32477;51.474;5.696;2022-12-07T07:27:32;2.30;99.90
46732;DHT22;32477;51.474;5.696;2022-12-07T07:29:58;2.40;99.90
46732;DHT22;32477;51.474;5.696;2022-12-07T07:32:24;2.50;99.90
46732;DHT22;32477;51.474;5.696;2022-12-07T07:34:49;2.50;99.90
46732;DHT22;32477;51.474;5.696;2022-12-07T07:37:15;2.60;99.90
46732;DHT22;32477;51.474;5.696;2022-12-07T07:39:41;2.60;99.90
46732;DHT22;32477;51.474;5.696;2022-12-07T07:42:06;2.60;99.90
46732;DHT22;32477;51.474;5.696;2022-12-07T07:44:33;2.50;99.90
46732;DHT22;32477;51.474;5.696;2022-12-07T07:46:59;2.50;99.90
46732;DHT22;32477;51.474;5.696;2022-12-07T07:49:25;2.50;99.90
46732;DHT22;32477;51.474;5.696;2022-12-07T07:51:50;2.50;99.90
46732;DHT22;32477;51.474;5.696;2022-12-07T07:54:16;2.60;99.90
46732;DHT22;32477;51.474;5.696;2022-12-07T07:56:42;2.70;99.90
46732;DHT22;32477;51.474;5.696;2022-12-07T07:59:07;2.80;99.90
46732;DHT22;32477;51.474;5.696;2022-12-07T08:01:33;2.70;99.90
46732;DHT22;32477;51.474;5.696;2022-12-07T08:03:59;2.70;99.90
46732;DHT22;32477;51.474;5.696;2022-12-07T08:06:25;2.60;99.90
46732;DHT22;32477;51.474;5.696;2022-12-07T08:08:50;2.60;99.90
46732;DHT22;32477;51.474;5.696;2022-12-07T08:11:17;2.60;99.90
46732;DHT22;32477;51.474;5.696;2022-12-07T08:13:45;2.60;99.90
46732;DHT22;32477;51.474;5.696;2022-12-07T08:16:12;2.70;99.90
46732;DHT22;32477;51.474;5.696;2022-12-07T08:18:39;2.80;99.90
46732;DHT22;32477;51.474;5.696;2022-12-07T08:21:07;2.90;99.90
46732;DHT22;32477;51.474;5.696;2022-12-07T08:23:33;3.00;99.90
46732;DHT22;32477;51.474;5.696;2022-12-07T08:26:10;2.90;99.90
46732;DHT22;32477;51.474;5.696;2022-12-07T08:28:36;2.90;99.90
46732;DHT22;32477;51.474;5.696;2022-12-07T08:31:08;2.90;99.90
46732;DHT22;32477;51.474;5.696;2022-12-07T08:33:34;2.90;99.90
46732;DHT22;32477;51.474;5.696;2022-12-07T08:36:05;2.90;99.90
46732;DHT22;32477;51.474;5.696;2022-12-07T08:38:32;3.00;99.90
46732;DHT22;32477;51.474;5.696;2022-12-07T08:40:59;3.10;99.90
46732;DHT22;32477;51.474;5.696;2022-12-07T08:43:25;3.20;99.90
46732;DHT22;32477;51.474;5.696;2022-12-07T08:46:00;3.40;99.90
46732;DHT22;32477;51.474;5.696;2022-12-07T08:48:29;3.60;99.90
46732;DHT22;32477;51.474;5.696;2022-12-07T08:50:56;3.70;99.90
46732;DHT22;32477;51.474;5.696;2022-12-07T08:53:22;3.80;99.90
46732;DHT22;32477;51.474;5.696;2022-12-07T08:55:48;3.90;99.90
46732;DHT22;32477;51.474;5.696;2022-12-07T08:58:14;3.90;99.90
46732;DHT22;32477;51.474;5.696;2022-12-07T09:00:39;3.80;99.90
46732;DHT22;32477;51.474;5.696;2022-12-07T09:03:05;3.90;99.90
46732;DHT22;32477;51.474;5.696;2022-12-07T09:05:32;3.90;99.90
46732;DHT22;32477;51.474;5.696;2022-12-07T09:08:01;3.80;99.90
46732;DHT22;32477;51.474;5.696;2022-12-07T09:10:28;3.90;99.90
46732;DHT22;32477;51.474;5.696;2022-12-07T09:12:53;4.00;99.90
46732;DHT22;32477;51.474;5.696;2022-12-07T09:15:19;4.10;99.90
46732;DHT22;32477;51.474;5.696;2022-12-07T09:17:45;4.20;99.90
46732;DHT22;32477;51.474;5.696;2022-12-07T09:20:11;4.40;99.90
46732;DHT22;32477;51.474;5.696;2022-12-07T09:22:37;4.50;99.90
46732;DHT22;32477;51.474;5.696;2022-12-07T09:25:04;4.50;99.90
46732;DHT22;32477;51.474;5.696;2022-12-07T09:27:30;4.60;99.90
46732;DHT22;32477;51.474;5.696;2022-12-07T09:29:56;4.70;99.90
46732;DHT22;32477;51.474;5.696;2022-12-07T09:32:22;4.70;99.90
46732;DHT22;32477;51.474;5.696;2022-12-07T09:34:48;4.80;99.90
46732;DHT22;32477;51.474;5.696;2022-12-07T09:37:14;4.90;99.90
46732;DHT22;32477;51.474;5.696;2022-12-07T09:39:40;4.90;99.90
46732;DHT22;32477;51.474;5.696;2022-12-07T09:42:06;4.90;99.90
46732;DHT22;32477;51.474;5.696;2022-12-07T09:44:34;5.00;99.90
46732;DHT22;32477;51.474;5.696;2022-12-07T09:47:00;5.00;99.90
46732;DHT22;32477;51.474;5.696;2022-12-07T09:49:31;5.00;99.90
46732;DHT22;32477;51.474;5.696;2022-12-07T09:54:36;5.20;99.90
46732;DHT22;32477;51.474;5.696;2022-12-07T09:57:03;5.30;99.90
46732;DHT22;32477;51.474;5.696;2022-12-07T09:59:29;5.30;99.90
46732;DHT22;32477;51.474;5.696;2022-12-07T10:01:55;5.30;99.90
46732;DHT22;32477;51.474;5.696;2022-12-07T10:04:23;5.30;99.90
46732;DHT22;32477;51.474;5.696;2022-12-07T10:06:50;5.40;99.90
46732;DHT22;32477;51.474;5.696;2022-12-07T10:09:18;5.50;99.90
46732;DHT22;32477;51.474;5.696;2022-12-07T10:12:08;5.70;99.90
46732;DHT22;32477;51.474;5.696;2022-12-07T10:14:39;5.90;99.90
46732;DHT22;32477;51.474;5.696;2022-12-07T10:20:25;5.80;99.90
46732;DHT22;32477;51.474;5.696;2022-12-07T10:23:05;5.70;99.90
46732;DHT22;32477;51.474;5.696;2022-12-07T10:25:38;6.20;99.90
46732;DHT22;32477;51.474;5.696;2022-12-07T10:30:56;8.80;99.90
46732;DHT22;32477;51.474;5.696;2022-12-07T10:33:40;8.90;99.90
46732;DHT22;32477;51.474;5.696;2022-12-07T10:36:34;8.90;99.90
46732;DHT22;32477;51.474;5.696;2022-12-07T10:39:15;9.50;99.90
46732;DHT22;32477;51.474;5.696;2022-12-07T10:41:57;10.10;99.90
46732;DHT22;32477;51.474;5.696;2022-12-07T10:44:31;10.40;99.90
46732;DHT22;32477;51.474;5.696;2022-12-07T10:58:24;11.10;99.90
46732;DHT22;32477;51.474;5.696;2022-12-07T11:06:24;8.50;99.90
46732;DHT22;32477;51.474;5.696;2022-12-07T11:17:26;10.10;99.90
46732;DHT22;32477;51.474;5.696;2022-12-07T11:20:20;10.70;99.90
46732;DHT22;32477;51.474;5.696;2022-12-07T11:28:34;12.90;99.90
46732;DHT22;32477;51.474;5.696;2022-12-07T11:34:36;13.40;99.90
46732;DHT22;32477;51.474;5.696;2022-12-07T11:36:43;12.80;99.90
46732;DHT22;32477;51.474;5.696;2022-12-07T11:41:52;10.60;99.90
46732;DHT22;32477;51.474;5.696;2022-12-07T11:47:13;9.30;99.90
46732;DHT22;32477;51.474;5.696;2022-12-07T11:49:54;8.90;99.90
46732;DHT22;32477;51.474;5.696;2022-12-07T11:55:52;8.50;99.90
46732;DHT22;32477;51.474;5.696;2022-12-07T12:00:53;8.10;99.90
46732;DHT22;32477;51.474;5.696;2022-12-07T12:03:30;8.00;99.90
46732;DHT22;32477;51.474;5.696;2022-12-07T12:05:58;8.10;99.90
46732;DHT22;32477;51.474;5.696;2022-12-07T12:08:29;8.10;99.90
46732;DHT22;32477;51.474;5.696;2022-12-07T12:14:11;8.10;99.90
46732;DHT22;32477;51.474;5.696;2022-12-07T12:22:20;8.00;99.90
46732;DHT22;32477;51.474;5.696;2022-12-07T12:24:52;8.00;99.90
46732;DHT22;32477;51.474;5.696;2022-12-07T12:27:26;8.00;99.90
46732;DHT22;32477;51.474;5.696;2022-12-07T12:29:55;8.10;99.90
46732;DHT22;32477;51.474;5.696;2022-12-07T12:42:53;9.90;99.90
46732;DHT22;32477;51.474;5.696;2022-12-07T12:50:25;10.70;99.90
46732;DHT22;32477;51.474;5.696;2022-12-07T12:53:24;9.90;99.90
46732;DHT22;32477;51.474;5.696;2022-12-07T12:56:10;9.20;99.90
46732;DHT22;32477;51.474;5.696;2022-12-07T12:58:41;9.00;99.90
46732;DHT22;32477;51.474;5.696;2022-12-07T13:03:56;9.90;99.90
46732;DHT22;32477;51.474;5.696;2022-12-07T13:08:54;8.70;99.90
46732;DHT22;32477;51.474;5.696;2022-12-07T13:11:41;8.40;99.90
46732;DHT22;32477;51.474;5.696;2022-12-07T13:25:33;10.50;99.90
46732;DHT22;32477;51.474;5.696;2022-12-07T13:28:10;10.40;99.90
46732;DHT22;32477;51.474;5.696;2022-12-07T13:33:53;9.50;99.90
46732;DHT22;32477;51.474;5.696;2022-12-07T13:36:24;8.80;99.90
46732;DHT22;32477;51.474;5.696;2022-12-07T13:38:59;8.40;99.90
46732;DHT22;32477;51.474;5.696;2022-12-07T13:41:29;8.70;99.90
46732;DHT22;32477;51.474;5.696;2022-12-07T13:44:05;9.40;99.90
46732;DHT22;32477;51.474;5.696;2022-12-07T13:49:49;8.20;99.90
46732;DHT22;32477;51.474;5.696;2022-12-07T13:52:27;7.60;99.90
46732;DHT22;32477;51.474;5.696;2022-12-07T13:57:33;8.10;99.90
46732;DHT22;32477;51.474;5.696;2022-12-07T14:00:04;8.50;99.90
46732;DHT22;32477;51.474;5.696;2022-12-07T14:02:32;8.80;99.90
46732;DHT22;32477;51.474;5.696;2022-12-07T14:05:09;8.90;99.90
46732;DHT22;32477;51.474;5.696;2022-12-07T14:07:35;9.20;99.90
46732;DHT22;32477;51.474;5.696;2022-12-07T14:10:04;9.40;99.90
46732;DHT22;32477;51.474;5.696;2022-12-07T14:12:31;8.90;99.90
46732;DHT22;32477;51.474;5.696;2022-12-07T14:14:59;8.40;99.90
46732;DHT22;32477;51.474;5.696;2022-12-07T14:17:27;7.90;99.90
46732;DHT22;32477;51.474;5.696;2022-12-07T14:19:59;7.60;99.90
46732;DHT22;32477;51.474;5.696;2022-12-07T14:22:36;7.30;99.90
46732;DHT22;32477;51.474;5.696;2022-12-07T14:25:18;7.00;99.90
46732;DHT22;32477;51.474;5.696;2022-12-07T14:30:20;6.70;99.90
46732;DHT22;32477;51.474;5.696;2022-12-07T14:32:50;6.60;99.90
46732;DHT22;32477;51.474;5.696;2022-12-07T14:35:17;6.70;99.90
46732;DHT22;32477;51.474;5.696;2022-12-07T14:37:46;6.70;99.90
46732;DHT22;32477;51.474;5.696;2022-12-07T14:40:19;6.70;99.90
46732;DHT22;32477;51.474;5.696;2022-12-07T14:42:47;6.70;99.90
46732;DHT22;32477;51.474;5.696;2022-12-07T14:45:16;6.70;99.90
46732;DHT22;32477;51.474;5.696;2022-12-07T14:47:42;6.70;99.90
46732;DHT22;32477;51.474;5.696;2022-12-07T14:50:11;6.70;99.90
46732;DHT22;32477;51.474;5.696;2022-12-07T14:52:38;6.70;99.90
46732;DHT22;32477;51.474;5.696;2022-12-07T14:55:05;6.80;99.90
46732;DHT22;32477;51.474;5.696;2022-12-07T14:57:30;6.70;99.90
46732;DHT22;32477;51.474;5.696;2022-12-07T14:59:56;6.60;99.90
46732;DHT22;32477;51.474;5.696;2022-12-07T15:02:22;6.40;99.90
46732;DHT22;32477;51.474;5.696;2022-12-07T15:04:47;6.30;99.90
46732;DHT22;32477;51.474;5.696;2022-12-07T15:07:19;6.10;99.90
46732;DHT22;32477;51.474;5.696;2022-12-07T15:09:45;6.10;99.90
46732;DHT22;32477;51.474;5.696;2022-12-07T15:12:11;6.00;99.90
46732;DHT22;32477;51.474;5.696;2022-12-07T15:14:37;6.00;99.90
46732;DHT22;32477;51.474;5.696;2022-12-07T15:17:05;5.90;99.90
46732;DHT22;32477;51.474;5.696;2022-12-07T15:19:31;5.90;99.90
46732;DHT22;32477;51.474;5.696;2022-12-07T15:21:57;5.80;99.90
46732;DHT22;32477;51.474;5.696;2022-12-07T15:24:25;5.80;99.90
46732;DHT22;32477;51.474;5.696;2022-12-07T15:26:51;5.80;99.90
46732;DHT22;32477;51.474;5.696;2022-12-07T15:29:17;5.70;99.90
46732;DHT22;32477;51.474;5.696;2022-12-07T15:31:43;5.70;99.90
46732;DHT22;32477;51.474;5.696;2022-12-07T15:34:09;5.70;99.90
46732;DHT22;32477;51.474;5.696;2022-12-07T15:36:35;5.70;99.90
46732;DHT22;32477;51.474;5.696;2022-12-07T15:39:01;5.60;99.90
46732;DHT22;32477;51.474;5.696;2022-12-07T15:41:27;5.50;99.90
46732;DHT22;32477;51.474;5.696;2022-12-07T15:43:52;5.40;99.90
46732;DHT22;32477;51.474;5.696;2022-12-07T15:46:39;5.30;99.90
46732;DHT22;32477;51.474;5.696;2022-12-07T15:49:17;5.20;99.90
46732;DHT22;32477;51.474;5.696;2022-12-07T15:51:44;5.20;99.90
46732;DHT22;32477;51.474;5.696;2022-12-07T15:54:24;5.10;99.90
46732;DHT22;32477;51.474;5.696;2022-12-07T15:56:50;5.10;99.90
46732;DHT22;32477;51.474;5.696;2022-12-07T15:59:16;5.10;99.90
46732;DHT22;32477;51.474;5.696;2022-12-07T16:01:42;5.10;99.90
46732;DHT22;32477;51.474;5.696;2022-12-07T16:04:08;5.00;99.90
46732;DHT22;32477;51.474;5.696;2022-12-07T16:06:34;5.00;99.90
46732;DHT22;32477;51.474;5.696;2022-12-07T16:09:00;5.00;99.90
46732;DHT22;32477;51.474;5.696;2022-12-07T16:11:26;5.10;99.90
46732;DHT22;32477;51.474;5.696;2022-12-07T16:13:51;5.10;99.90
46732;DHT22;32477;51.474;5.696;2022-12-07T16:16:18;5.10;99.90
46732;DHT22;32477;51.474;5.696;2022-12-07T16:18:46;5.20;99.90
46732;DHT22;32477;51.474;5.696;2022-12-07T16:21:16;5.20;99.90
46732;DHT22;32477;51.474;5.696;2022-12-07T16:23:42;5.20;99.90
46732;DHT22;32477;51.474;5.696;2022-12-07T16:26:11;5.20;99.90
46732;DHT22;32477;51.474;5.696;2022-12-07T16:28:37;5.10;99.90
46732;DHT22;32477;51.474;5.696;2022-12-07T16:31:14;5.20;99.90
46732;DHT22;32477;51.474;5.696;2022-12-07T16:33:41;5.20;99.90
46732;DHT22;32477;51.474;5.696;2022-12-07T16:36:09;5.20;99.90
46732;DHT22;32477;51.474;5.696;2022-12-07T16:38:35;5.20;99.90
46732;DHT22;32477;51.474;5.696;2022-12-07T16:41:01;5.20;99.90
46732;DHT22;32477;51.474;5.696;2022-12-07T16:43:27;5.20;99.90
46732;DHT22;32477;51.474;5.696;2022-12-07T16:45:53;5.10;99.90
46732;DHT22;32477;51.474;5.696;2022-12-07T16:48:18;5.10;99.90
46732;DHT22;32477;51.474;5.696;2022-12-07T16:50:44;5.10;99.90
46732;DHT22;32477;51.474;5.696;2022-12-07T16:53:11;5.10;99.90
46732;DHT22;32477;51.474;5.696;2022-12-07T16:55:43;5.00;99.90
46732;DHT22;32477;51.474;5.696;2022-12-07T16:58:09;5.00;99.90
46732;DHT22;32477;51.474;5.696;2022-12-07T17:00:36;4.90;99.90
46732;DHT22;32477;51.474;5.696;2022-12-07T17:03:03;4.90;99.90
46732;DHT22;32477;51.474;5.696;2022-12-07T17:05:29;4.90;99.90
46732;DHT22;32477;51.474;5.696;2022-12-07T17:07:56;4.90;99.90
46732;DHT22;32477;51.474;5.696;2022-12-07T17:10:22;4.90;99.90
46732;DHT22;32477;51.474;5.696;2022-12-07T17:12:48;5.00;99.90
46732;DHT22;32477;51.474;5.696;2022-12-07T17:15:14;5.00;99.90
46732;DHT22;32477;51.474;5.696;2022-12-07T17:17:44;5.00;99.90
46732;DHT22;32477;51.474;5.696;2022-12-07T17:20:11;5.00;99.90
46732;DHT22;32477;51.474;5.696;2022-12-07T17:22:36;5.00;99.90
46732;DHT22;32477;51.474;5.696;2022-12-07T17:25:03;5.00;99.90
46732;DHT22;32477;51.474;5.696;2022-12-07T17:27:30;5.00;99.90
46732;DHT22;32477;51.474;5.696;2022-12-07T17:29:55;5.00;99.90
46732;DHT22;32477;51.474;5.696;2022-12-07T17:32:21;4.90;99.90
46732;DHT22;32477;51.474;5.696;2022-12-07T17:34:47;4.90;99.90
46732;DHT22;32477;51.474;5.696;2022-12-07T17:37:12;4.90;99.90
46732;DHT22;32477;51.474;5.696;2022-12-07T17:39:38;4.90;99.90
46732;DHT22;32477;51.474;5.696;2022-12-07T17:42:04;4.80;99.90
46732;DHT22;32477;51.474;5.696;2022-12-07T17:44:48;4.80;99.90
46732;DHT22;32477;51.474;5.696;2022-12-07T17:47:14;4.80;99.90
46732;DHT22;32477;51.474;5.696;2022-12-07T17:49:41;4.70;99.90
46732;DHT22;32477;51.474;5.696;2022-12-07T17:52:07;4.70;99.90
46732;DHT22;32477;51.474;5.696;2022-12-07T17:54:52;4.60;99.90
46732;DHT22;32477;51.474;5.696;2022-12-07T17:57:17;4.60;99.90
46732;DHT22;32477;51.474;5.696;2022-12-07T17:59:43;4.60;99.90
46732;DHT22;32477;51.474;5.696;2022-12-07T18:02:09;4.60;99.90
46732;DHT22;32477;51.474;5.696;2022-12-07T18:04:35;4.60;99.90
46732;DHT22;32477;51.474;5.696;2022-12-07T18:07:01;4.60;99.90
46732;DHT22;32477;51.474;5.696;2022-12-07T18:09:29;4.70;99.90